sensor_id;sensor_type;location;lat;lon;timestamp;pressure;altitude;pressure_sealevel;temperature;humidity
5455;BME280;2750;49.050;9.250;2022-07-06T00:02:54;99314.34;;;19.99;73.91
5455;BME280;2750;49.050;9.250;2022-07-06T00:07:57;99321.63;;;19.84;74.40
5455;BME280;2750;49.050;9.250;2022-07-06T00:12:58;99319.38;;;19.91;73.99
5455;BME280;2750;49.050;9.250;2022-07-06T00:18:00;99324.28;;;19.49;75.06
5455;BME280;2750;49.050;9.250;2022-07-06T00:23:02;99322.13;;;19.31;75.29
5455;BME280;2750;49.050;9.250;2022-07-06T00:28:04;99324.44;;;19.35;75.49
5455;BME280;2750;49.050;9.250;2022-07-06T00:33:05;99324.97;;;19.86;73.66
5455;BME280;2750;49.050;9.250;2022-07-06T00:38:08;99323.78;;;19.79;73.57
5455;BME280;2750;49.050;9.250;2022-07-06T00:43:10;99322.00;;;19.91;73.24
5455;BME280;2750;49.050;9.250;2022-07-06T00:48:11;99325.16;;;20.18;72.68
5455;BME280;2750;49.050;9.250;2022-07-06T00:53:14;99318.28;;;19.47;74.47
5455;BME280;2750;49.050;9.250;2022-07-06T00:58:16;99331.72;;;19.55;74.41
5455;BME280;2750;49.050;9.250;2022-07-06T01:09:00;99324.94;;;18.93;77.16
5455;BME280;2750;49.050;9.250;2022-07-06T01:14:02;99332.47;;;19.21;76.28
5455;BME280;2750;49.050;9.250;2022-07-06T01:19:04;99323.38;;;19.14;76.50
5455;BME280;2750;49.050;9.250;2022-07-06T01:24:07;99326.44;;;19.08;76.33
5455;BME280;2750;49.050;9.250;2022-07-06T01:29:08;99325.22;;;19.01;76.29
5455;BME280;2750;49.050;9.250;2022-07-06T01:34:10;99314.69;;;18.65;76.88
5455;BME280;2750;49.050;9.250;2022-07-06T01:39:14;99321.63;;;19.02;76.25
5455;BME280;2750;49.050;9.250;2022-07-06T01:44:16;99316.47;;;19.24;75.07
5455;BME280;2750;49.050;9.250;2022-07-06T01:49:17;99315.28;;;19.28;76.23
5455;BME280;2750;49.050;9.250;2022-07-06T01:54:20;99311.19;;;19.24;76.57
5455;BME280;2750;49.050;9.250;2022-07-06T01:59:21;99316.47;;;19.24;76.18
5455;BME280;2750;49.050;9.250;2022-07-06T02:04:23;99334.63;;;19.16;76.41
5455;BME280;2750;49.050;9.250;2022-07-06T02:09:26;99332.00;;;18.80;77.76
5455;BME280;2750;49.050;9.250;2022-07-06T02:14:27;99332.56;;;18.59;78.50
5455;BME280;2750;49.050;9.250;2022-07-06T02:19:29;99335.63;;;18.53;78.55
5455;BME280;2750;49.050;9.250;2022-07-06T02:24:32;99338.09;;;18.80;76.89
5455;BME280;2750;49.050;9.250;2022-07-06T02:29:33;99340.22;;;18.75;76.90
5455;BME280;2750;49.050;9.250;2022-07-06T02:34:35;99336.53;;;18.78;76.54
5455;BME280;2750;49.050;9.250;2022-07-06T02:39:38;99329.28;;;18.69;76.81
5455;BME280;2750;49.050;9.250;2022-07-06T02:44:39;99325.91;;;18.67;76.35
5455;BME280;2750;49.050;9.250;2022-07-06T02:49:40;99336.44;;;18.41;77.01
5455;BME280;2750;49.050;9.250;2022-07-06T02:54:43;99337.09;;;18.57;76.76
5455;BME280;2750;49.050;9.250;2022-07-06T02:59:45;99338.25;;;18.41;77.29
5455;BME280;2750;49.050;9.250;2022-07-06T03:04:50;99352.22;;;18.41;76.81
5455;BME280;2750;49.050;9.250;2022-07-06T03:09:52;99353.28;;;18.51;76.56
5455;BME280;2750;49.050;9.250;2022-07-06T03:14:54;99362.19;;;18.36;78.04
5455;BME280;2750;49.050;9.250;2022-07-06T03:19:55;99363.47;;;18.31;78.61
5455;BME280;2750;49.050;9.250;2022-07-06T03:24:58;99369.69;;;18.30;78.90
5455;BME280;2750;49.050;9.250;2022-07-06T03:30:00;99365.38;;;18.16;77.70
5455;BME280;2750;49.050;9.250;2022-07-06T03:35:01;99371.53;;;18.02;78.96
5455;BME280;2750;49.050;9.250;2022-07-06T03:40:05;99371.78;;;18.12;77.15
5455;BME280;2750;49.050;9.250;2022-07-06T03:45:08;99379.97;;;18.33;78.16
5455;BME280;2750;49.050;9.250;2022-07-06T03:50:10;99382.59;;;18.71;77.78
5455;BME280;2750;49.050;9.250;2022-07-06T03:55:13;99386.00;;;19.09;77.28
5455;BME280;2750;49.050;9.250;2022-07-06T04:00:15;99383.47;;;19.20;75.30
5455;BME280;2750;49.050;9.250;2022-07-06T04:05:16;99384.53;;;19.05;75.12
5455;BME280;2750;49.050;9.250;2022-07-06T04:10:22;99385.06;;;19.10;75.43
5455;BME280;2750;49.050;9.250;2022-07-06T04:15:24;99393.63;;;19.01;75.42
5455;BME280;2750;49.050;9.250;2022-07-06T04:20:25;99394.41;;;19.14;75.32
5455;BME280;2750;49.050;9.250;2022-07-06T04:25:28;99401.22;;;20.00;72.98
5455;BME280;2750;49.050;9.250;2022-07-06T04:30:30;99401.47;;;20.99;70.32
5455;BME280;2750;49.050;9.250;2022-07-06T04:35:31;99391.09;;;22.25;67.11
5455;BME280;2750;49.050;9.250;2022-07-06T04:40:34;99398.19;;;23.55;63.32
5455;BME280;2750;49.050;9.250;2022-07-06T04:45:35;99406.28;;;24.02;62.59
5455;BME280;2750;49.050;9.250;2022-07-06T04:50:37;99405.31;;;23.74;63.01
5455;BME280;2750;49.050;9.250;2022-07-06T04:55:40;99407.56;;;23.19;63.81
5455;BME280;2750;49.050;9.250;2022-07-06T05:00:41;99412.41;;;23.45;63.86
5455;BME280;2750;49.050;9.250;2022-07-06T05:05:43;99403.91;;;23.70;63.21
5455;BME280;2750;49.050;9.250;2022-07-06T05:10:46;99419.50;;;24.50;62.08
5455;BME280;2750;49.050;9.250;2022-07-06T05:15:48;99417.59;;;25.16;60.96
5455;BME280;2750;49.050;9.250;2022-07-06T05:20:50;99414.19;;;24.96;60.77
5455;BME280;2750;49.050;9.250;2022-07-06T05:25:53;99414.38;;;24.85;60.97
5455;BME280;2750;49.050;9.250;2022-07-06T05:30:55;99425.91;;;23.02;64.48
5455;BME280;2750;49.050;9.250;2022-07-06T05:35:56;99418.41;;;23.07;64.71
5455;BME280;2750;49.050;9.250;2022-07-06T05:40:59;99416.78;;;24.69;61.83
5455;BME280;2750;49.050;9.250;2022-07-06T05:46:01;99428.03;;;23.48;63.94
5455;BME280;2750;49.050;9.250;2022-07-06T05:51:03;99426.34;;;23.66;63.93
5455;BME280;2750;49.050;9.250;2022-07-06T05:56:06;99424.72;;;23.65;64.67
5455;BME280;2750;49.050;9.250;2022-07-06T06:01:07;99422.81;;;25.08;61.26
5455;BME280;2750;49.050;9.250;2022-07-06T06:06:09;99423.03;;;25.42;59.55
5455;BME280;2750;49.050;9.250;2022-07-06T06:11:12;99415.66;;;25.08;60.58
5455;BME280;2750;49.050;9.250;2022-07-06T06:16:13;99425.66;;;25.24;60.05
5455;BME280;2750;49.050;9.250;2022-07-06T06:21:15;99426.06;;;27.04;55.66
5455;BME280;2750;49.050;9.250;2022-07-06T06:26:18;99435.50;;;25.86;56.78
5455;BME280;2750;49.050;9.250;2022-07-06T06:31:20;99436.97;;;24.43;60.15
5455;BME280;2750;49.050;9.250;2022-07-06T06:36:21;99443.19;;;24.61;60.01
5455;BME280;2750;49.050;9.250;2022-07-06T06:41:24;99448.44;;;23.95;60.79
5455;BME280;2750;49.050;9.250;2022-07-06T06:46:26;99444.53;;;23.90;61.30
5455;BME280;2750;49.050;9.250;2022-07-06T06:51:27;99444.88;;;24.62;59.96
5455;BME280;2750;49.050;9.250;2022-07-06T06:56:30;99440.31;;;25.28;59.54
5455;BME280;2750;49.050;9.250;2022-07-06T07:01:31;99444.69;;;25.47;59.11
5455;BME280;2750;49.050;9.250;2022-07-06T07:06:33;99442.47;;;26.66;57.34
5455;BME280;2750;49.050;9.250;2022-07-06T07:11:36;99436.97;;;26.42;57.08
5455;BME280;2750;49.050;9.250;2022-07-06T07:16:38;99426.53;;;28.32;54.24
5455;BME280;2750;49.050;9.250;2022-07-06T07:21:39;99441.66;;;28.72;52.29
5455;BME280;2750;49.050;9.250;2022-07-06T07:26:42;99442.84;;;27.39;54.38
5455;BME280;2750;49.050;9.250;2022-07-06T07:31:44;99441.53;;;27.01;55.40
5455;BME280;2750;49.050;9.250;2022-07-06T07:36:45;99432.69;;;28.17;53.64
5455;BME280;2750;49.050;9.250;2022-07-06T07:41:48;99436.88;;;28.19;54.46
5455;BME280;2750;49.050;9.250;2022-07-06T07:46:50;99439.47;;;27.87;54.53
5455;BME280;2750;49.050;9.250;2022-07-06T07:51:53;99429.34;;;28.47;53.74
5455;BME280;2750;49.050;9.250;2022-07-06T07:56:56;99441.06;;;27.05;54.88
5455;BME280;2750;49.050;9.250;2022-07-06T08:01:57;99421.28;;;28.63;52.93
5455;BME280;2750;49.050;9.250;2022-07-06T08:06:59;99431.47;;;27.71;54.41
5455;BME280;2750;49.050;9.250;2022-07-06T08:12:02;99428.84;;;29.07;52.86
5455;BME280;2750;49.050;9.250;2022-07-06T08:17:04;99422.97;;;28.48;53.41
5455;BME280;2750;49.050;9.250;2022-07-06T08:22:06;99433.50;;;28.74;52.89
5455;BME280;2750;49.050;9.250;2022-07-06T08:27:09;99424.84;;;28.23;53.80
5455;BME280;2750;49.050;9.250;2022-07-06T08:32:11;99415.00;;;28.16;54.88
5455;BME280;2750;49.050;9.250;2022-07-06T08:37:12;99413.81;;;28.34;54.37
5455;BME280;2750;49.050;9.250;2022-07-06T08:42:16;99426.66;;;28.55;53.61
5455;BME280;2750;49.050;9.250;2022-07-06T08:47:18;99411.94;;;30.44;52.11
5455;BME280;2750;49.050;9.250;2022-07-06T08:52:21;99424.34;;;28.44;54.08
5455;BME280;2750;49.050;9.250;2022-07-06T08:57:25;99417.31;;;28.43;54.08
5455;BME280;2750;49.050;9.250;2022-07-06T09:02:27;99418.25;;;27.53;55.92
5455;BME280;2750;49.050;9.250;2022-07-06T09:07:29;99424.66;;;26.92;56.57
5455;BME280;2750;49.050;9.250;2022-07-06T09:12:32;99446.22;;;25.94;57.87
5455;BME280;2750;49.050;9.250;2022-07-06T09:17:37;99434.97;;;25.83;58.67
5455;BME280;2750;49.050;9.250;2022-07-06T09:22:39;99431.59;;;26.16;57.74
5455;BME280;2750;49.050;9.250;2022-07-06T09:27:43;99443.00;;;25.46;59.79
5455;BME280;2750;49.050;9.250;2022-07-06T09:32:49;99444.97;;;26.06;58.70
5455;BME280;2750;49.050;9.250;2022-07-06T09:38:02;99435.25;;;25.62;59.49
5455;BME280;2750;49.050;9.250;2022-07-06T09:43:10;99432.22;;;26.28;58.92
5455;BME280;2750;49.050;9.250;2022-07-06T09:48:13;99447.78;;;25.52;59.48
5455;BME280;2750;49.050;9.250;2022-07-06T09:53:15;99446.28;;;25.40;59.46
5455;BME280;2750;49.050;9.250;2022-07-06T09:58:18;99454.06;;;25.23;60.26
5455;BME280;2750;49.050;9.250;2022-07-06T10:03:20;99455.84;;;25.60;59.89
5455;BME280;2750;49.050;9.250;2022-07-06T10:08:23;99448.31;;;26.44;58.60
5455;BME280;2750;49.050;9.250;2022-07-06T10:13:27;99453.13;;;25.87;59.29
5455;BME280;2750;49.050;9.250;2022-07-06T10:18:29;99452.97;;;26.06;58.10
5455;BME280;2750;49.050;9.250;2022-07-06T10:23:31;99454.81;;;26.67;58.57
5455;BME280;2750;49.050;9.250;2022-07-06T10:28:37;99459.41;;;25.68;58.24
5455;BME280;2750;49.050;9.250;2022-07-06T10:33:41;99464.06;;;25.84;58.94
5455;BME280;2750;49.050;9.250;2022-07-06T10:38:48;99460.22;;;26.14;57.86
5455;BME280;2750;49.050;9.250;2022-07-06T10:43:51;99450.53;;;26.74;56.94
5455;BME280;2750;49.050;9.250;2022-07-06T10:48:56;99469.31;;;25.94;58.61
5455;BME280;2750;49.050;9.250;2022-07-06T10:53:59;99473.31;;;25.80;58.59
5455;BME280;2750;49.050;9.250;2022-07-06T10:59:08;99458.91;;;26.00;57.95
5455;BME280;2750;49.050;9.250;2022-07-06T11:04:10;99455.25;;;26.01;57.49
5455;BME280;2750;49.050;9.250;2022-07-06T11:09:11;99464.44;;;26.07;58.24
5455;BME280;2750;49.050;9.250;2022-07-06T11:14:16;99462.47;;;25.56;58.19
5455;BME280;2750;49.050;9.250;2022-07-06T11:19:19;99453.72;;;25.99;57.36
5455;BME280;2750;49.050;9.250;2022-07-06T11:24:23;99451.31;;;26.41;57.26
5455;BME280;2750;49.050;9.250;2022-07-06T11:29:27;99449.69;;;25.77;57.33
5455;BME280;2750;49.050;9.250;2022-07-06T11:34:30;99440.94;;;25.22;57.69
5455;BME280;2750;49.050;9.250;2022-07-06T11:39:32;99436.97;;;25.26;58.59
5455;BME280;2750;49.050;9.250;2022-07-06T11:44:37;99439.38;;;24.92;58.80
5455;BME280;2750;49.050;9.250;2022-07-06T11:49:40;99433.75;;;24.95;58.12
5455;BME280;2750;49.050;9.250;2022-07-06T11:54:42;99437.84;;;24.80;58.89
5455;BME280;2750;49.050;9.250;2022-07-06T11:59:46;99440.28;;;25.10;58.52
5455;BME280;2750;49.050;9.250;2022-07-06T12:04:49;99433.50;;;25.71;57.84
5455;BME280;2750;49.050;9.250;2022-07-06T12:09:50;99425.34;;;25.27;58.21
5455;BME280;2750;49.050;9.250;2022-07-06T12:14:53;99430.75;;;24.71;58.81
5455;BME280;2750;49.050;9.250;2022-07-06T12:19:55;99423.44;;;25.47;58.62
5455;BME280;2750;49.050;9.250;2022-07-06T12:24:57;99419.59;;;25.04;58.81
5455;BME280;2750;49.050;9.250;2022-07-06T12:30:09;99423.84;;;24.97;58.30
5455;BME280;2750;49.050;9.250;2022-07-06T12:35:11;99424.31;;;25.65;56.18
5455;BME280;2750;49.050;9.250;2022-07-06T12:40:14;99416.84;;;25.68;56.42
5455;BME280;2750;49.050;9.250;2022-07-06T12:45:18;99421.28;;;25.33;57.11
5455;BME280;2750;49.050;9.250;2022-07-06T12:50:19;99414.94;;;25.16;57.01
5455;BME280;2750;49.050;9.250;2022-07-06T12:55:25;99420.44;;;25.32;57.29
5455;BME280;2750;49.050;9.250;2022-07-06T13:00:28;99426.16;;;25.37;56.56
5455;BME280;2750;49.050;9.250;2022-07-06T13:05:30;99397.56;;;25.21;56.58
5455;BME280;2750;49.050;9.250;2022-07-06T13:10:31;99417.97;;;24.57;57.42
5455;BME280;2750;49.050;9.250;2022-07-06T13:15:35;99405.38;;;26.03;55.25
5455;BME280;2750;49.050;9.250;2022-07-06T13:20:36;99400.06;;;26.21;55.79
5455;BME280;2750;49.050;9.250;2022-07-06T13:25:38;99415.09;;;26.12;54.16
5455;BME280;2750;49.050;9.250;2022-07-06T13:30:40;99403.34;;;25.97;53.78
5455;BME280;2750;49.050;9.250;2022-07-06T13:35:42;99416.63;;;25.35;54.21
5455;BME280;2750;49.050;9.250;2022-07-06T13:40:43;99391.66;;;26.34;53.57
5455;BME280;2750;49.050;9.250;2022-07-06T13:45:47;99409.94;;;25.58;53.16
5455;BME280;2750;49.050;9.250;2022-07-06T13:50:48;99391.91;;;26.05;52.45
5455;BME280;2750;49.050;9.250;2022-07-06T13:55:50;99387.84;;;26.62;52.15
5455;BME280;2750;49.050;9.250;2022-07-06T14:00:53;99381.03;;;27.43;50.54
5455;BME280;2750;49.050;9.250;2022-07-06T14:05:55;99375.94;;;28.31;49.26
5455;BME280;2750;49.050;9.250;2022-07-06T14:10:57;99372.44;;;27.82;49.25
5455;BME280;2750;49.050;9.250;2022-07-06T14:16:00;99374.63;;;28.11;48.63
5455;BME280;2750;49.050;9.250;2022-07-06T14:21:02;99361.56;;;27.83;49.69
5455;BME280;2750;49.050;9.250;2022-07-06T14:26:04;99355.53;;;28.38;49.26
5455;BME280;2750;49.050;9.250;2022-07-06T14:31:08;99355.16;;;27.28;49.93
5455;BME280;2750;49.050;9.250;2022-07-06T14:36:09;99365.38;;;27.48;49.37
5455;BME280;2750;49.050;9.250;2022-07-06T14:41:11;99360.44;;;27.94;48.97
5455;BME280;2750;49.050;9.250;2022-07-06T14:46:14;99353.81;;;28.69;48.02
5455;BME280;2750;49.050;9.250;2022-07-06T14:51:15;99345.00;;;28.44;48.78
5455;BME280;2750;49.050;9.250;2022-07-06T14:56:16;99347.56;;;28.22;48.86
5455;BME280;2750;49.050;9.250;2022-07-06T15:01:19;99350.44;;;28.12;48.21
5455;BME280;2750;49.050;9.250;2022-07-06T15:06:21;99344.25;;;28.12;47.85
5455;BME280;2750;49.050;9.250;2022-07-06T15:11:22;99331.66;;;27.31;48.92
5455;BME280;2750;49.050;9.250;2022-07-06T15:16:25;99334.38;;;28.28;48.41
5455;BME280;2750;49.050;9.250;2022-07-06T15:21:27;99327.50;;;27.45;49.45
5455;BME280;2750;49.050;9.250;2022-07-06T15:26:28;99318.91;;;26.93;48.95
5455;BME280;2750;49.050;9.250;2022-07-06T15:31:31;99317.22;;;27.66;48.63
5455;BME280;2750;49.050;9.250;2022-07-06T15:36:33;99313.91;;;26.56;50.02
5455;BME280;2750;49.050;9.250;2022-07-06T15:41:34;99308.13;;;27.19;47.94
5455;BME280;2750;49.050;9.250;2022-07-06T15:46:37;99307.81;;;27.22;47.70
5455;BME280;2750;49.050;9.250;2022-07-06T15:51:39;99302.84;;;28.16;46.34
5455;BME280;2750;49.050;9.250;2022-07-06T15:56:40;99296.50;;;28.25;45.86
5455;BME280;2750;49.050;9.250;2022-07-06T16:01:43;99298.34;;;28.00;45.64
5455;BME280;2750;49.050;9.250;2022-07-06T16:06:44;99300.53;;;27.64;45.93
5455;BME280;2750;49.050;9.250;2022-07-06T16:11:46;99285.00;;;27.92;46.06
5455;BME280;2750;49.050;9.250;2022-07-06T16:16:49;99295.78;;;27.01;46.24
5455;BME280;2750;49.050;9.250;2022-07-06T16:21:50;99297.94;;;25.61;48.21
5455;BME280;2750;49.050;9.250;2022-07-06T16:26:51;99281.56;;;25.91;47.73
5455;BME280;2750;49.050;9.250;2022-07-06T16:31:54;99284.16;;;25.22;48.96
5455;BME280;2750;49.050;9.250;2022-07-06T16:36:56;99285.31;;;24.92;49.24
5455;BME280;2750;49.050;9.250;2022-07-06T16:41:57;99296.78;;;24.93;49.88
5455;BME280;2750;49.050;9.250;2022-07-06T16:47:00;99296.91;;;24.27;50.21
5455;BME280;2750;49.050;9.250;2022-07-06T16:52:02;99295.69;;;24.21;50.77
5455;BME280;2750;49.050;9.250;2022-07-06T16:57:04;99293.56;;;24.62;50.31
5455;BME280;2750;49.050;9.250;2022-07-06T17:02:06;99299.47;;;24.09;51.18
5455;BME280;2750;49.050;9.250;2022-07-06T17:07:08;99304.03;;;24.36;50.62
5455;BME280;2750;49.050;9.250;2022-07-06T17:12:10;99295.09;;;24.27;50.36
5455;BME280;2750;49.050;9.250;2022-07-06T17:17:12;99304.19;;;24.25;50.88
5455;BME280;2750;49.050;9.250;2022-07-06T17:22:14;99307.22;;;23.84;51.03
5455;BME280;2750;49.050;9.250;2022-07-06T17:27:17;99299.31;;;24.20;50.80
5455;BME280;2750;49.050;9.250;2022-07-06T17:32:20;99301.69;;;24.60;49.91
5455;BME280;2750;49.050;9.250;2022-07-06T17:37:21;99297.34;;;24.22;50.45
5455;BME280;2750;49.050;9.250;2022-07-06T17:42:23;99298.53;;;23.91;50.51
5455;BME280;2750;49.050;9.250;2022-07-06T17:47:26;99291.81;;;24.06;50.79
5455;BME280;2750;49.050;9.250;2022-07-06T17:52:28;99305.19;;;24.05;51.33
5455;BME280;2750;49.050;9.250;2022-07-06T17:57:29;99301.63;;;24.43;50.95
5455;BME280;2750;49.050;9.250;2022-07-06T18:02:32;99298.81;;;23.88;51.86
5455;BME280;2750;49.050;9.250;2022-07-06T18:07:34;99309.59;;;23.58;51.85
5455;BME280;2750;49.050;9.250;2022-07-06T18:12:35;99314.66;;;24.26;51.10
5455;BME280;2750;49.050;9.250;2022-07-06T18:17:38;99318.59;;;24.03;51.30
5455;BME280;2750;49.050;9.250;2022-07-06T18:22:39;99326.44;;;24.88;50.38
5455;BME280;2750;49.050;9.250;2022-07-06T18:27:41;99332.91;;;25.03;49.63
5455;BME280;2750;49.050;9.250;2022-07-06T18:32:44;99321.47;;;25.38;49.23
5455;BME280;2750;49.050;9.250;2022-07-06T18:37:46;99324.78;;;24.87;49.58
5455;BME280;2750;49.050;9.250;2022-07-06T18:42:48;99324.78;;;24.77;50.12
5455;BME280;2750;49.050;9.250;2022-07-06T18:47:51;99332.38;;;25.00;49.75
5455;BME280;2750;49.050;9.250;2022-07-06T18:52:52;99329.25;;;24.77;50.63
5455;BME280;2750;49.050;9.250;2022-07-06T18:57:54;99337.63;;;23.99;51.45
5455;BME280;2750;49.050;9.250;2022-07-06T19:02:56;99337.34;;;23.83;52.38
5455;BME280;2750;49.050;9.250;2022-07-06T19:07:58;99348.78;;;22.76;54.41
5455;BME280;2750;49.050;9.250;2022-07-06T19:12:59;99348.38;;;22.29;55.46
5455;BME280;2750;49.050;9.250;2022-07-06T19:18:03;99352.06;;;21.97;56.21
5455;BME280;2750;49.050;9.250;2022-07-06T19:23:04;99365.69;;;21.60;56.88
5455;BME280;2750;49.050;9.250;2022-07-06T19:28:06;99370.72;;;21.63;56.89
5455;BME280;2750;49.050;9.250;2022-07-06T19:33:09;99370.69;;;21.31;57.78
5455;BME280;2750;49.050;9.250;2022-07-06T19:38:11;99385.06;;;21.50;57.96
5455;BME280;2750;49.050;9.250;2022-07-06T19:43:12;99397.78;;;21.44;58.41
5455;BME280;2750;49.050;9.250;2022-07-06T19:48:15;99406.84;;;21.31;59.48
5455;BME280;2750;49.050;9.250;2022-07-06T19:53:17;99404.34;;;21.07;59.50
5455;BME280;2750;49.050;9.250;2022-07-06T19:58:19;99410.69;;;20.93;59.85
5455;BME280;2750;49.050;9.250;2022-07-06T20:03:23;99410.00;;;20.80;60.30
5455;BME280;2750;49.050;9.250;2022-07-06T20:08:26;99404.31;;;20.63;60.88
5455;BME280;2750;49.050;9.250;2022-07-06T20:13:27;99411.28;;;20.64;60.91
5455;BME280;2750;49.050;9.250;2022-07-06T20:18:30;99413.22;;;20.50;61.31
5455;BME280;2750;49.050;9.250;2022-07-06T20:23:32;99424.31;;;20.43;61.87
5455;BME280;2750;49.050;9.250;2022-07-06T20:28:33;99411.66;;;20.13;62.45
5455;BME280;2750;49.050;9.250;2022-07-06T20:33:40;99414.09;;;20.27;62.27
5455;BME280;2750;49.050;9.250;2022-07-06T20:38:41;99414.63;;;20.09;62.68
5455;BME280;2750;49.050;9.250;2022-07-06T20:43:43;99421.63;;;19.86;63.16
5455;BME280;2750;49.050;9.250;2022-07-06T20:48:46;99427.25;;;19.81;63.57
5455;BME280;2750;49.050;9.250;2022-07-06T20:53:48;99432.09;;;19.75;63.53
5455;BME280;2750;49.050;9.250;2022-07-06T20:58:49;99427.03;;;19.61;64.65
5455;BME280;2750;49.050;9.250;2022-07-06T21:03:52;99427.53;;;19.66;64.01
5455;BME280;2750;49.050;9.250;2022-07-06T21:08:54;99437.34;;;19.27;65.04
5455;BME280;2750;49.050;9.250;2022-07-06T21:13:55;99436.66;;;19.36;65.23
5455;BME280;2750;49.050;9.250;2022-07-06T21:18:58;99436.72;;;19.24;65.37
5455;BME280;2750;49.050;9.250;2022-07-06T21:24:00;99432.56;;;18.96;65.90
5455;BME280;2750;49.050;9.250;2022-07-06T21:29:01;99440.13;;;19.00;65.86
5455;BME280;2750;49.050;9.250;2022-07-06T21:34:04;99437.72;;;18.59;66.91
5455;BME280;2750;49.050;9.250;2022-07-06T21:39:06;99433.94;;;18.63;67.70
5455;BME280;2750;49.050;9.250;2022-07-06T21:44:07;99430.34;;;18.39;68.33
5455;BME280;2750;49.050;9.250;2022-07-06T21:49:10;99437.25;;;18.15;68.59
5455;BME280;2750;49.050;9.250;2022-07-06T21:54:11;99423.72;;;18.46;68.41
5455;BME280;2750;49.050;9.250;2022-07-06T21:59:13;99427.69;;;18.01;70.00
5455;BME280;2750;49.050;9.250;2022-07-06T22:04:16;99424.34;;;18.37;68.74
5455;BME280;2750;49.050;9.250;2022-07-06T22:09:17;99426.22;;;18.23;69.86
5455;BME280;2750;49.050;9.250;2022-07-06T22:14:18;99423.88;;;17.93;70.17
5455;BME280;2750;49.050;9.250;2022-07-06T22:19:21;99428.50;;;18.02;70.11
5455;BME280;2750;49.050;9.250;2022-07-06T22:24:23;99426.41;;;18.07;70.87
5455;BME280;2750;49.050;9.250;2022-07-06T22:29:24;99421.41;;;18.17;69.70
5455;BME280;2750;49.050;9.250;2022-07-06T22:34:27;99415.06;;;18.06;70.46
5455;BME280;2750;49.050;9.250;2022-07-06T22:39:30;99417.03;;;18.03;70.91
5455;BME280;2750;49.050;9.250;2022-07-06T22:44:32;99413.28;;;18.07;70.08
5455;BME280;2750;49.050;9.250;2022-07-06T22:49:34;99420.59;;;18.02;70.28
5455;BME280;2750;49.050;9.250;2022-07-06T22:54:36;99414.41;;;18.03;70.07
5455;BME280;2750;49.050;9.250;2022-07-06T22:59:37;99419.38;;;18.33;70.51
5455;BME280;2750;49.050;9.250;2022-07-06T23:04:40;99412.16;;;18.24;69.70
5455;BME280;2750;49.050;9.250;2022-07-06T23:09:41;99410.03;;;18.16;70.25
5455;BME280;2750;49.050;9.250;2022-07-06T23:14:43;99406.47;;;18.30;70.95
5455;BME280;2750;49.050;9.250;2022-07-06T23:19:46;99399.97;;;18.35;69.77
5455;BME280;2750;49.050;9.250;2022-07-06T23:24:47;99398.69;;;18.41;69.80
5455;BME280;2750;49.050;9.250;2022-07-06T23:29:48;99414.66;;;18.25;70.35
5455;BME280;2750;49.050;9.250;2022-07-06T23:34:51;99402.91;;;18.43;70.34
5455;BME280;2750;49.050;9.250;2022-07-06T23:39:54;99404.97;;;18.13;71.45
5455;BME280;2750;49.050;9.250;2022-07-06T23:44:56;99405.72;;;18.15;71.42
5455;BME280;2750;49.050;9.250;2022-07-06T23:49:59;99395.19;;;18.02;71.94
5455;BME280;2750;49.050;9.250;2022-07-06T23:55:01;99394.91;;;18.32;70.13
